Time;durP1;ratioP1;P1;durP2;ratioP2;P2;SDS_P1;SDS_P2;PMS_P1;PMS_P2;Temp;Humidity;BMP_temperature;BMP_pressure;BME280_temperature;BME280_humidity;BME280_pressure;Samples;Min_cycle;Max_cycle;Signal;HPM_P1;HPM_P2
2023/10/14 00:01:12;;;;;;;5.10;1.55;;;12.30;99.90;;;;;;5013763;28;20092;-74
2023/10/14 00:03:45;;;;;;;5.38;1.35;;;12.30;99.90;;;;;;5024705;28;20108;-75
2023/10/14 00:06:14;;;;;;;8.05;1.35;;;12.20;99.90;;;;;;5011807;28;20433;-75
2023/10/14 00:08:48;;;;;;;5.75;1.15;;;12.20;99.90;;;;;;5023525;28;20041;-75
2023/10/14 00:11:18;;;;;;;2.45;1.20;;;12.10;99.90;;;;;;5023522;28;20152;-75
2023/10/14 00:13:52;;;;;;;5.05;1.15;;;12.10;99.90;;;;;;5023975;28;20042;-75
2023/10/14 00:18:55;;;;;;;1.85;0.70;;;12.00;99.90;;;;;;5019799;28;20132;-75
2023/10/14 00:21:23;;;;;;;7.28;1.92;;;12.00;99.90;;;;;;5015933;28;20080;-75
2023/10/14 00:23:51;;;;;;;4.75;1.70;;;11.90;99.90;;;;;;5024215;28;20076;-74
2023/10/14 00:26:16;;;;;;;2.67;1.00;;;12.00;99.90;;;;;;5019968;28;20484;-75
2023/10/14 00:28:45;;;;;;;4.00;1.75;;;11.80;99.90;;;;;;5009341;28;20104;-75
2023/10/14 00:31:12;;;;;;;1.90;0.60;;;11.90;99.90;;;;;;5003878;28;20119;-75
2023/10/14 00:33:38;;;;;;;2.30;0.90;;;11.80;99.90;;;;;;5020453;28;20050;-75
2023/10/14 00:36:10;;;;;;;3.33;1.05;;;11.80;99.90;;;;;;5011053;28;20033;-75
2023/10/14 00:38:44;;;;;;;5.60;0.88;;;11.80;99.90;;;;;;5019203;28;20045;-74
2023/10/14 00:41:10;;;;;;;3.50;0.98;;;11.80;99.90;;;;;;5006239;28;20045;-75
2023/10/14 00:43:36;;;;;;;3.88;0.57;;;11.80;99.90;;;;;;5018520;28;20046;-74
2023/10/14 00:46:10;;;;;;;6.60;0.93;;;11.80;99.90;;;;;;5018172;28;20042;-75
2023/10/14 00:48:40;;;;;;;5.55;1.85;;;11.80;99.90;;;;;;5021399;28;20052;-75
2023/10/14 00:51:07;;;;;;;2.35;1.00;;;11.80;99.90;;;;;;5015472;28;20081;-75
2023/10/14 00:53:37;;;;;;;5.05;0.95;;;11.80;99.90;;;;;;5003448;28;20112;-75
2023/10/14 00:56:03;;;;;;;1.27;0.95;;;11.80;99.90;;;;;;5003878;28;20053;-75
2023/10/14 00:58:28;;;;;;;2.45;0.50;;;11.80;99.90;;;;;;5006716;28;20188;-75
2023/10/14 01:00:57;;;;;;;7.55;1.50;;;11.80;99.90;;;;;;4997719;28;20124;-74
2023/10/14 01:03:34;;;;;;;2.22;0.80;;;11.90;99.90;;;;;;5003237;28;20038;-75
2023/10/14 01:06:23;;;;;;;6.13;1.77;;;11.80;99.90;;;;;;5008984;28;20737;-74
2023/10/14 01:08:52;;;;;;;5.47;0.98;;;11.90;99.90;;;;;;5020553;28;20041;-75
2023/10/14 01:11:19;;;;;;;3.70;1.45;;;11.80;99.90;;;;;;5010168;28;20117;-74
2023/10/14 01:13:45;;;;;;;10.10;1.08;;;11.90;99.90;;;;;;5022795;28;20056;-75
2023/10/14 01:16:12;;;;;;;3.60;1.00;;;11.90;99.90;;;;;;5008865;28;20728;-75
2023/10/14 01:18:41;;;;;;;5.93;1.30;;;11.90;99.90;;;;;;5005288;28;20037;-74
2023/10/14 01:21:07;;;;;;;6.15;1.60;;;11.90;99.90;;;;;;5004048;28;20515;-75
2023/10/14 01:23:38;;;;;;;3.03;1.08;;;11.90;99.90;;;;;;5011383;28;20124;-75
2023/10/14 01:26:04;;;;;;;0.63;0.63;;;11.90;99.90;;;;;;5009773;28;20060;-74
2023/10/14 01:28:31;;;;;;;5.97;0.98;;;11.90;99.90;;;;;;5005288;28;20095;-75
2023/10/14 01:34:01;;;;;;;1.88;1.30;;;11.90;99.90;;;;;;5016734;28;20085;-75
2023/10/14 01:36:32;;;;;;;3.58;0.88;;;11.90;99.90;;;;;;5016541;28;20037;-75
2023/10/14 01:39:09;;;;;;;3.13;0.70;;;11.90;99.90;;;;;;5003061;28;20053;-75
2023/10/14 01:41:35;;;;;;;6.10;0.82;;;11.90;99.90;;;;;;5016120;28;20084;-74
2023/10/14 01:44:05;;;;;;;2.95;1.13;;;11.80;99.90;;;;;;5014567;28;20135;-75
2023/10/14 01:46:34;;;;;;;2.22;1.45;;;11.90;99.90;;;;;;5019005;28;20054;-75
2023/10/14 01:49:16;;;;;;;6.05;1.00;;;11.90;99.90;;;;;;5022027;28;20045;-75
2023/10/14 01:51:41;;;;;;;4.00;0.50;;;11.90;99.90;;;;;;5020597;28;20046;-75
2023/10/14 01:54:09;;;;;;;2.25;1.35;;;11.90;99.90;;;;;;5011574;28;20462;-75
2023/10/14 01:56:37;;;;;;;9.52;1.23;;;11.90;99.90;;;;;;5006449;28;20057;-75
2023/10/14 01:59:03;;;;;;;6.05;0.88;;;11.90;99.90;;;;;;5017136;28;20056;-74
2023/10/14 02:01:34;;;;;;;4.93;1.23;;;11.90;99.90;;;;;;5016860;28;20053;-74
2023/10/14 02:03:59;;;;;;;3.47;0.60;;;12.00;99.90;;;;;;5008288;28;20045;-75
2023/10/14 02:06:30;;;;;;;2.78;0.80;;;11.90;99.90;;;;;;5004122;28;20048;-74
2023/10/14 02:08:58;;;;;;;8.90;1.40;;;11.90;99.90;;;;;;5022281;28;20069;-76
2023/10/14 02:11:24;;;;;;;6.88;0.90;;;11.90;99.90;;;;;;5022271;28;20171;-75
2023/10/14 02:13:51;;;;;;;2.80;0.93;;;11.90;99.90;;;;;;5021705;28;20056;-75
2023/10/14 02:16:40;;;;;;;2.88;1.10;;;11.90;99.90;;;;;;5022198;28;20116;-75
2023/10/14 02:21:44;;;;;;;1.27;0.63;;;11.90;99.90;;;;;;5002927;28;20081;-75
2023/10/14 02:24:10;;;;;;;1.63;0.73;;;11.90;99.90;;;;;;5002598;28;20576;-75
2023/10/14 02:26:38;;;;;;;6.25;1.10;;;11.80;99.90;;;;;;5002284;28;20111;-75
2023/10/14 02:29:11;;;;;;;4.07;0.93;;;11.80;99.90;;;;;;5002598;28;20046;-74
2023/10/14 02:31:37;;;;;;;3.00;1.00;;;11.80;99.90;;;;;;5002340;28;20042;-75
2023/10/14 02:34:05;;;;;;;3.65;0.90;;;11.80;99.90;;;;;;5001877;28;20123;-74
2023/10/14 02:36:35;;;;;;;6.95;1.35;;;11.80;99.90;;;;;;5001716;28;20049;-75
2023/10/14 02:39:02;;;;;;;6.22;0.95;;;11.80;99.90;;;;;;5002164;28;20041;-75
2023/10/14 02:41:31;;;;;;;2.25;1.08;;;11.80;99.90;;;;;;5001516;28;20058;-75
2023/10/14 02:46:33;;;;;;;3.67;0.85;;;11.80;99.90;;;;;;5019105;28;20060;-75
2023/10/14 02:49:02;;;;;;;3.63;1.27;;;11.80;99.90;;;;;;5019418;28;20094;-75
2023/10/14 02:54:05;;;;;;;7.20;0.80;;;11.70;99.90;;;;;;5008451;28;20064;-75
2023/10/14 02:56:46;;;;;;;3.30;1.05;;;11.70;99.90;;;;;;5017856;28;20068;-75
2023/10/14 02:59:15;;;;;;;2.67;0.82;;;11.80;99.90;;;;;;5021079;28;20045;-75
2023/10/14 03:01:51;;;;;;;2.72;0.75;;;11.80;99.90;;;;;;5020219;28;20503;-75
2023/10/14 03:04:18;;;;;;;4.25;1.15;;;11.70;99.90;;;;;;5021365;28;20061;-74
2023/10/14 03:06:46;;;;;;;4.00;1.30;;;11.70;99.90;;;;;;5017405;28;20116;-75
2023/10/14 03:09:18;;;;;;;16.92;1.58;;;11.70;99.90;;;;;;5014034;28;20041;-75
2023/10/14 03:11:45;;;;;;;5.15;0.80;;;11.70;99.90;;;;;;5021572;28;20075;-75
2023/10/14 03:14:11;;;;;;;1.65;0.98;;;11.60;99.90;;;;;;5021347;28;20052;-75
2023/10/14 03:16:36;;;;;;;4.53;1.02;;;11.60;99.90;;;;;;5021563;28;20045;-75
2023/10/14 03:19:03;;;;;;;8.68;1.02;;;11.60;99.90;;;;;;5022702;28;20041;-75
2023/10/14 03:21:30;;;;;;;2.70;0.88;;;11.60;99.90;;;;;;5020481;28;20045;-74
2023/10/14 03:23:56;;;;;;;2.78;0.40;;;11.50;99.90;;;;;;5020311;28;20053;-75
2023/10/14 03:26:27;;;;;;;1.00;0.43;;;11.50;99.90;;;;;;5020360;28;20063;-75
2023/10/14 03:28:53;;;;;;;2.13;0.95;;;11.50;99.90;;;;;;5022476;28;20091;-75
2023/10/14 03:31:24;;;;;;;6.05;0.63;;;11.50;99.90;;;;;;5020842;28;20096;-75
2023/10/14 03:33:54;;;;;;;2.70;0.50;;;11.50;99.90;;;;;;5021862;28;20042;-75
2023/10/14 03:36:28;;;;;;;3.67;1.10;;;11.50;99.90;;;;;;5006482;28;20292;-75
2023/10/14 03:39:00;;;;;;;1.65;0.70;;;11.50;99.90;;;;;;5002002;28;20088;-75
2023/10/14 03:41:37;;;;;;;4.80;0.57;;;11.50;99.90;;;;;;5001722;28;20060;-75
2023/10/14 03:44:09;;;;;;;4.78;0.93;;;11.50;99.90;;;;;;5021276;28;20050;-74
2023/10/14 03:49:11;;;;;;;4.25;0.77;;;11.50;99.90;;;;;;5018272;28;20053;-75
2023/10/14 03:51:40;;;;;;;9.32;1.23;;;11.50;99.90;;;;;;5008496;28;20042;-75
2023/10/14 03:54:09;;;;;;;2.70;0.93;;;11.50;99.90;;;;;;5021405;28;20042;-75
2023/10/14 03:56:36;;;;;;;10.02;1.40;;;11.50;99.90;;;;;;5020598;28;20492;-75
2023/10/14 03:59:03;;;;;;;3.45;0.98;;;11.50;99.90;;;;;;5006687;28;20068;-75
2023/10/14 04:01:43;;;;;;;4.22;1.15;;;11.40;99.90;;;;;;5015545;28;20108;-75
2023/10/14 04:04:19;;;;;;;7.30;0.47;;;11.50;99.90;;;;;;5017834;28;20041;-76
2023/10/14 04:07:05;;;;;;;4.32;1.15;;;11.50;99.90;;;;;;5002362;28;20038;-75
2023/10/14 04:12:09;;;;;;;1.33;0.85;;;11.50;99.90;;;;;;5001772;28;20104;-75
2023/10/14 04:14:40;;;;;;;1.75;0.82;;;11.50;99.90;;;;;;5004824;28;20042;-74
2023/10/14 04:17:18;;;;;;;1.98;0.88;;;11.50;99.90;;;;;;5020836;28;20056;-75
2023/10/14 04:19:44;;;;;;;5.95;1.60;;;11.50;99.90;;;;;;5012340;28;20050;-75
2023/10/14 04:25:07;;;;;;;2.28;1.25;;;11.50;99.90;;;;;;5007724;28;20587;-75
2023/10/14 04:27:45;;;;;;;5.03;0.88;;;11.50;99.90;;;;;;5024527;28;20038;-75
2023/10/14 04:30:21;;;;;;;6.75;0.80;;;11.50;99.90;;;;;;5007736;28;20500;-75
2023/10/14 04:32:48;;;;;;;4.00;0.93;;;11.50;99.90;;;;;;5005161;28;20058;-75
2023/10/14 04:35:19;;;;;;;6.60;1.52;;;11.40;99.90;;;;;;5010890;28;20045;-76
2023/10/14 04:37:51;;;;;;;3.33;0.95;;;11.40;99.90;;;;;;5007488;28;20048;-75
2023/10/14 04:43:11;;;;;;;8.53;0.80;;;11.40;99.90;;;;;;5024064;28;20514;-74
2023/10/14 04:45:45;;;;;;;1.95;0.90;;;11.30;99.90;;;;;;5013750;28;20293;-75
2023/10/14 04:48:12;;;;;;;1.67;1.00;;;11.30;99.90;;;;;;5003628;28;20451;-75
2023/10/14 04:50:38;;;;;;;2.10;1.48;;;11.30;99.90;;;;;;5021718;28;20037;-75
2023/10/14 04:53:05;;;;;;;2.13;0.88;;;11.30;99.90;;;;;;5021225;28;20077;-75
2023/10/14 04:55:36;;;;;;;3.05;0.75;;;11.20;99.90;;;;;;5012651;28;20079;-75
2023/10/14 04:58:08;;;;;;;2.47;0.60;;;11.20;99.90;;;;;;5023192;28;20172;-75
2023/10/14 05:00:42;;;;;;;4.70;0.88;;;11.20;99.90;;;;;;5024864;28;20651;-75
2023/10/14 05:03:23;;;;;;;3.95;1.17;;;11.20;99.90;;;;;;5024217;28;20049;-74
2023/10/14 05:05:56;;;;;;;4.35;0.82;;;11.20;99.90;;;;;;5012038;28;20485;-75
2023/10/14 05:08:22;;;;;;;;;;;11.20;99.90;;;;;;5020332;28;20057;-75
2023/10/14 05:10:51;;;;;;;4.68;1.17;;;11.20;99.90;;;;;;5023734;28;20008;-75
2023/10/14 05:13:34;;;;;;;4.65;0.60;;;11.20;99.90;;;;;;5024151;28;20048;-75
2023/10/14 05:18:59;;;;;;;6.60;1.00;;;11.30;99.90;;;;;;5013180;28;20099;-75
2023/10/14 05:21:44;;;;;;;4.57;0.77;;;11.20;99.90;;;;;;5005587;28;20049;-75
2023/10/14 05:24:11;;;;;;;3.50;0.80;;;11.20;99.90;;;;;;5003018;28;20046;-76
2023/10/14 05:26:46;;;;;;;5.25;1.40;;;11.20;99.90;;;;;;5003749;28;20042;-74
2023/10/14 05:29:19;;;;;;;7.22;1.75;;;11.20;99.90;;;;;;5002536;28;20041;-75
2023/10/14 05:31:45;;;;;;;1.58;0.70;;;11.20;99.90;;;;;;5002654;28;20126;-75
2023/10/14 05:34:11;;;;;;;5.78;1.00;;;11.20;99.90;;;;;;5004716;28;20325;-75
2023/10/14 05:36:37;;;;;;;2.53;0.90;;;11.10;99.90;;;;;;5005012;28;20053;-75
2023/10/14 05:39:03;;;;;;;9.02;2.30;;;11.20;99.90;;;;;;5003425;28;20440;-75
2023/10/14 05:41:36;;;;;;;3.55;1.73;;;11.10;99.90;;;;;;5003931;28;20053;-75
2023/10/14 05:44:04;;;;;;;1.98;1.05;;;11.10;99.90;;;;;;5003542;28;20046;-75
2023/10/14 05:46:30;;;;;;;4.22;1.25;;;11.10;99.90;;;;;;5000838;28;20046;-75
2023/10/14 05:48:56;;;;;;;10.82;1.35;;;11.10;99.90;;;;;;5002895;28;20049;-75
2023/10/14 05:51:22;;;;;;;1.50;1.05;;;11.10;99.90;;;;;;5004752;28;20045;-75
2023/10/14 05:53:49;;;;;;;6.38;1.42;;;11.10;99.90;;;;;;5012871;28;20496;-75
2023/10/14 05:56:14;;;;;;;8.38;1.52;;;11.10;99.90;;;;;;5004765;28;20041;-75
2023/10/14 05:58:48;;;;;;;1.77;1.08;;;11.10;99.90;;;;;;5011264;28;20075;-75
2023/10/14 06:01:16;;;;;;;6.57;1.70;;;11.10;99.90;;;;;;5016270;28;20660;-75
2023/10/14 06:03:42;;;;;;;2.70;1.27;;;11.10;99.90;;;;;;5007123;28;20579;-75
2023/10/14 06:06:09;;;;;;;4.13;1.02;;;11.20;99.90;;;;;;5014645;28;20033;-74
2023/10/14 06:08:38;;;;;;;2.33;0.43;;;11.20;99.90;;;;;;5021894;28;20049;-75
2023/10/14 06:11:05;;;;;;;7.18;1.83;;;11.20;99.90;;;;;;5022627;28;20128;-75
2023/10/14 06:13:35;;;;;;;3.22;0.75;;;11.20;99.90;;;;;;5007345;28;20053;-75
2023/10/14 06:16:07;;;;;;;1.95;0.95;;;11.20;99.90;;;;;;5009463;28;20548;-76
2023/10/14 06:18:32;;;;;;;5.25;0.98;;;11.30;99.90;;;;;;5005771;28;20042;-76
2023/10/14 06:20:59;;;;;;;8.30;1.98;;;11.30;99.90;;;;;;5006979;28;20049;-77
2023/10/14 06:23:28;;;;;;;1.90;0.95;;;11.30;99.90;;;;;;5008094;28;20128;-76
2023/10/14 06:25:55;;;;;;;3.40;1.10;;;11.30;99.90;;;;;;5021149;28;20049;-77
2023/10/14 06:28:20;;;;;;;3.38;1.13;;;11.30;99.90;;;;;;5008392;28;20038;-76
2023/10/14 06:30:46;;;;;;;1.85;0.75;;;11.30;99.90;;;;;;5012621;28;20053;-76
2023/10/14 06:33:12;;;;;;;3.47;1.95;;;11.30;99.90;;;;;;5017886;28;20056;-76
2023/10/14 06:35:43;;;;;;;3.08;1.02;;;11.20;99.90;;;;;;5012962;28;20057;-77
2023/10/14 06:38:11;;;;;;;6.78;1.35;;;11.30;99.90;;;;;;5005651;28;20088;-77
2023/10/14 06:40:37;;;;;;;3.22;1.17;;;11.20;99.90;;;;;;5021120;28;20124;-77
2023/10/14 06:43:13;;;;;;;1.27;0.88;;;11.20;99.90;;;;;;5022039;28;20073;-77
2023/10/14 06:45:39;;;;;;;6.00;1.23;;;11.20;99.90;;;;;;5002267;28;20045;-78
2023/10/14 06:48:09;;;;;;;1.55;0.65;;;11.20;99.90;;;;;;5002900;28;20046;-77
2023/10/14 06:50:37;;;;;;;3.17;1.23;;;11.30;99.90;;;;;;5001887;28;20393;-77
2023/10/14 06:53:11;;;;;;;5.53;1.10;;;11.30;99.90;;;;;;5002278;28;20050;-78
2023/10/14 06:55:37;;;;;;;6.55;0.85;;;11.30;99.90;;;;;;5003172;28;20050;-78
2023/10/14 06:58:05;;;;;;;1.98;0.65;;;11.40;99.90;;;;;;5021114;28;20049;-78
2023/10/14 07:00:32;;;;;;;2.63;1.63;;;11.40;99.90;;;;;;5020836;28;20500;-79
2023/10/14 07:03:02;;;;;;;6.43;1.30;;;11.40;99.90;;;;;;5020598;28;20052;-78
2023/10/14 07:05:30;;;;;;;4.07;0.93;;;11.40;99.90;;;;;;5020037;28;20045;-78
2023/10/14 07:07:57;;;;;;;2.97;1.15;;;11.50;99.90;;;;;;5011032;28;20088;-77
2023/10/14 07:10:32;;;;;;;2.58;0.70;;;11.50;99.90;;;;;;5016828;28;20049;-78
2023/10/14 07:12:58;;;;;;;2.10;0.50;;;11.50;99.90;;;;;;4997255;28;20384;-77
2023/10/14 07:15:30;;;;;;;3.17;0.38;;;11.50;99.90;;;;;;5014883;28;20144;-78
2023/10/14 07:18:01;;;;;;;2.00;1.48;;;11.60;99.90;;;;;;5003733;28;20103;-76
2023/10/14 07:20:30;;;;;;;5.60;1.48;;;11.60;99.90;;;;;;5006671;28;20041;-78
2023/10/14 07:23:00;;;;;;;3.40;1.10;;;11.60;99.90;;;;;;5018013;28;20545;-78
2023/10/14 07:25:42;;;;;;;5.65;0.80;;;11.60;99.90;;;;;;5018742;28;20392;-78
2023/10/14 07:28:13;;;;;;;4.07;0.60;;;11.60;99.90;;;;;;5018922;28;20142;-78
2023/10/14 07:30:45;;;;;;;2.55;0.80;;;11.60;99.90;;;;;;5005957;28;20081;-79
2023/10/14 07:33:12;;;;;;;5.90;1.30;;;11.60;99.90;;;;;;5001675;28;20041;-77
2023/10/14 07:35:40;;;;;;;1.95;0.45;;;11.60;99.90;;;;;;5020343;28;20136;-78
2023/10/14 07:38:06;;;;;;;5.03;1.23;;;11.70;99.90;;;;;;5004719;28;20405;-77
2023/10/14 07:40:33;;;;;;;1.95;0.70;;;11.70;99.90;;;;;;5017084;28;20054;-78
2023/10/14 07:43:13;;;;;;;8.40;1.02;;;11.70;99.90;;;;;;5020782;28;20049;-77
2023/10/14 07:45:42;;;;;;;6.40;1.13;;;11.70;99.90;;;;;;5001541;28;20044;-79
2023/10/14 07:48:09;;;;;;;7.55;1.50;;;11.80;99.90;;;;;;5002675;28;20045;-77
2023/10/14 07:50:44;;;;;;;3.78;0.75;;;11.80;99.90;;;;;;5002038;28;20041;-77
2023/10/14 07:53:13;;;;;;;1.55;0.50;;;11.80;99.90;;;;;;4989511;28;20042;-77
2023/10/14 07:55:44;;;;;;;3.30;1.10;;;11.80;99.90;;;;;;5001651;28;20041;-77
2023/10/14 07:58:11;;;;;;;4.75;0.80;;;11.80;99.90;;;;;;5012851;28;20040;-77
2023/10/14 08:00:49;;;;;;;0.65;0.30;;;11.80;99.90;;;;;;5000564;28;20046;-78
2023/10/14 08:03:20;;;;;;;5.22;1.23;;;11.90;99.90;;;;;;5008549;28;20057;-79
2023/10/14 08:05:51;;;;;;;1.10;0.85;;;11.90;99.90;;;;;;5015658;28;20401;-80
2023/10/14 08:08:19;;;;;;;4.05;0.60;;;11.90;99.90;;;;;;5019198;28;20060;-79
2023/10/14 08:10:46;;;;;;;1.65;0.60;;;12.00;99.90;;;;;;5020709;28;20054;-80
2023/10/14 08:13:21;;;;;;;4.45;0.55;;;12.00;99.90;;;;;;5006678;28;20389;-79
2023/10/14 08:15:56;;;;;;;2.60;0.70;;;12.00;99.90;;;;;;5008979;28;20112;-79
2023/10/14 08:18:26;;;;;;;1.27;0.70;;;12.10;99.90;;;;;;5014774;28;20042;-78
2023/10/14 08:20:55;;;;;;;2.80;0.98;;;12.10;99.90;;;;;;5010178;28;20042;-77
2023/10/14 08:23:22;;;;;;;2.63;0.75;;;12.10;99.90;;;;;;5009076;28;20050;-76
2023/10/14 08:25:53;;;;;;;2.35;0.90;;;12.00;99.90;;;;;;5003838;28;20045;-78
2023/10/14 08:28:21;;;;;;;2.53;0.70;;;12.00;99.90;;;;;;5005566;28;20683;-77
2023/10/14 08:30:46;;;;;;;3.88;0.80;;;12.00;99.90;;;;;;5012629;28;20057;-77
2023/10/14 08:33:13;;;;;;;3.33;1.40;;;12.00;99.90;;;;;;5002843;28;20046;-78
2023/10/14 08:35:42;;;;;;;3.55;0.82;;;12.10;99.90;;;;;;5013335;28;20157;-80
2023/10/14 08:38:13;;;;;;;3.38;1.95;;;12.10;99.90;;;;;;5003604;28;20038;-76
2023/10/14 08:40:40;;;;;;;4.53;1.23;;;12.20;99.90;;;;;;5004230;28;20034;-77
2023/10/14 08:43:10;;;;;;;6.20;0.77;;;12.20;99.90;;;;;;5009798;28;20038;-77
2023/10/14 08:45:38;;;;;;;2.50;0.90;;;12.30;99.90;;;;;;5004980;28;20044;-77
2023/10/14 08:48:06;;;;;;;4.18;0.80;;;12.30;99.90;;;;;;5014187;28;20180;-76
2023/10/14 08:50:33;;;;;;;2.50;1.15;;;12.30;99.90;;;;;;5013092;28;20153;-75
2023/10/14 08:53:03;;;;;;;8.25;1.80;;;12.40;99.90;;;;;;5001662;28;20053;-76
2023/10/14 08:55:33;;;;;;;5.20;0.80;;;12.40;99.90;;;;;;5026403;28;20045;-75
2023/10/14 08:58:02;;;;;;;1.15;0.35;;;12.40;99.90;;;;;;5013935;28;20037;-75
2023/10/14 09:00:29;;;;;;;3.38;0.98;;;12.40;99.90;;;;;;5020397;28;20596;-75
2023/10/14 09:02:57;;;;;;;5.47;0.60;;;12.40;99.90;;;;;;5022760;28;20077;-75
2023/10/14 09:05:25;;;;;;;1.77;0.80;;;12.50;99.90;;;;;;5022806;28;20053;-74
2023/10/14 09:07:50;;;;;;;0.90;0.52;;;12.50;99.90;;;;;;5021072;28;20041;-76
2023/10/14 09:10:18;;;;;;;1.83;1.33;;;12.60;99.90;;;;;;5023036;28;20069;-76
2023/10/14 09:12:55;;;;;;;5.28;1.23;;;12.60;99.90;;;;;;5022520;28;20079;-76
2023/10/14 09:15:21;;;;;;;10.15;1.58;;;12.60;99.90;;;;;;5024030;28;20061;-75
2023/10/14 09:17:47;;;;;;;4.35;1.10;;;12.60;99.90;;;;;;5024121;28;20045;-76
2023/10/14 09:20:31;;;;;;;1.95;0.55;;;12.60;99.90;;;;;;5012766;28;20153;-75
2023/10/14 09:23:15;;;;;;;5.90;1.10;;;12.70;99.90;;;;;;5020368;28;20042;-78
2023/10/14 09:25:52;;;;;;;3.30;0.40;;;12.60;99.90;;;;;;5022619;28;20057;-79
2023/10/14 09:28:20;;;;;;;3.30;0.50;;;11.90;99.90;;;;;;5022301;28;20500;-76
2023/10/14 09:30:50;;;;;;;2.38;0.63;;;11.10;99.90;;;;;;5018717;28;20042;-77
2023/10/14 09:33:20;;;;;;;1.08;0.35;;;10.50;99.90;;;;;;5013081;28;20025;-76
2023/10/14 09:35:48;;;;;;;3.10;0.73;;;10.20;99.90;;;;;;5015127;28;20539;-75
2023/10/14 09:38:18;;;;;;;1.98;0.65;;;10.10;99.90;;;;;;5012916;28;20041;-73
2023/10/14 09:40:57;;;;;;;3.70;0.65;;;10.10;99.90;;;;;;5018193;28;20057;-75
2023/10/14 09:43:23;;;;;;;1.25;0.22;;;10.10;99.90;;;;;;5013191;28;20045;-76
2023/10/14 09:45:55;;;;;;;0.80;0.60;;;10.00;99.90;;;;;;5022983;28;20052;-76
2023/10/14 09:48:24;;;;;;;8.35;0.90;;;10.10;99.90;;;;;;5022008;28;20095;-75
2023/10/14 09:50:50;;;;;;;1.15;0.60;;;10.10;99.90;;;;;;5023665;28;20045;-74
2023/10/14 09:53:18;;;;;;;4.65;1.48;;;10.10;99.90;;;;;;5021735;28;20033;-74
2023/10/14 09:55:44;;;;;;;1.40;0.40;;;10.10;99.90;;;;;;5021964;28;20080;-74
2023/10/14 09:58:13;;;;;;;3.85;0.70;;;10.20;99.90;;;;;;5023099;28;20045;-75
2023/10/14 10:00:40;;;;;;;5.50;0.95;;;10.20;99.90;;;;;;5016490;28;20149;-77
2023/10/14 10:03:10;;;;;;;4.80;1.92;;;10.20;99.90;;;;;;5023096;28;20091;-75
2023/10/14 10:05:43;;;;;;;2.03;1.38;;;10.30;99.90;;;;;;5013372;28;20053;-74
2023/10/14 10:08:19;;;;;;;5.57;0.63;;;10.30;99.90;;;;;;5014388;28;20125;-77
2023/10/14 10:10:47;;;;;;;2.28;0.52;;;10.40;99.90;;;;;;5018603;28;20053;-74
2023/10/14 10:13:14;;;;;;;5.78;0.93;;;10.40;99.90;;;;;;5021664;28;20068;-75
2023/10/14 10:15:40;;;;;;;1.92;1.63;;;10.50;99.90;;;;;;5014672;28;20153;-76
2023/10/14 10:18:12;;;;;;;4.78;1.77;;;10.50;99.90;;;;;;5014117;28;20038;-77
2023/10/14 10:20:56;;;;;;;3.13;0.93;;;10.60;99.90;;;;;;5006115;28;20050;-77
2023/10/14 10:23:24;;;;;;;3.25;0.75;;;10.70;99.90;;;;;;5003335;28;20617;-73
2023/10/14 10:25:51;;;;;;;1.83;1.00;;;10.70;99.90;;;;;;5006647;28;20041;-74
2023/10/14 10:28:26;;;;;;;3.95;0.75;;;10.70;99.90;;;;;;5002719;28;20053;-74
2023/10/14 10:30:52;;;;;;;1.85;0.52;;;10.80;99.90;;;;;;5001116;28;20050;-74
2023/10/14 10:33:18;;;;;;;4.22;0.88;;;10.90;99.90;;;;;;5007502;28;20077;-74
2023/10/14 10:36:03;;;;;;;1.42;1.23;;;10.90;99.90;;;;;;5022403;28;20092;-77
2023/10/14 10:38:36;;;;;;;8.00;2.28;;;11.00;99.90;;;;;;5018837;28;20136;-75
2023/10/14 10:41:24;;;;;;;2.40;0.82;;;11.10;99.90;;;;;;5003837;28;20066;-76
2023/10/14 10:44:05;;;;;;;4.63;1.48;;;11.20;99.90;;;;;;5013011;28;20042;-75
2023/10/14 10:46:48;;;;;;;1.52;1.00;;;11.30;99.90;;;;;;5019400;28;20041;-74
2023/10/14 10:49:16;;;;;;;4.50;0.95;;;11.30;99.90;;;;;;5006459;28;20112;-75
2023/10/14 10:51:50;;;;;;;5.25;0.95;;;11.40;99.90;;;;;;5022036;28;20067;-76
2023/10/14 10:54:16;;;;;;;2.05;0.65;;;11.40;99.90;;;;;;5019968;28;20496;-77
2023/10/14 10:56:43;;;;;;;2.03;0.88;;;11.40;99.90;;;;;;5017394;28;20034;-76
2023/10/14 10:59:09;;;;;;;5.10;1.00;;;11.20;99.90;;;;;;5009970;28;20045;-76
2023/10/14 11:01:34;;;;;;;3.30;0.98;;;11.10;99.90;;;;;;5003208;28;20077;-77
2023/10/14 11:04:08;;;;;;;2.65;0.98;;;10.90;99.90;;;;;;5009404;28;20053;-77
2023/10/14 11:06:37;;;;;;;2.88;1.00;;;10.80;99.90;;;;;;5012424;28;20046;-77
2023/10/14 11:09:04;;;;;;;5.07;0.82;;;10.80;99.90;;;;;;5016530;28;20045;-76
2023/10/14 11:11:31;;;;;;;5.43;0.85;;;10.80;99.90;;;;;;5007057;28;20069;-77
2023/10/14 11:13:59;;;;;;;4.50;0.73;;;10.80;99.90;;;;;;5005360;28;20063;-77
2023/10/14 11:16:27;;;;;;;1.08;0.57;;;10.80;99.90;;;;;;5002615;28;20052;-75
2023/10/14 11:18:54;;;;;;;2.25;1.55;;;10.90;99.90;;;;;;5001165;28;20093;-76
2023/10/14 11:21:20;;;;;;;5.18;0.60;;;10.90;99.90;;;;;;5000507;28;20180;-76
2023/10/14 11:23:47;;;;;;;3.33;0.98;;;11.00;99.90;;;;;;5014050;28;20053;-79
2023/10/14 11:26:16;;;;;;;5.70;1.45;;;11.00;99.90;;;;;;5022221;28;20049;-77
2023/10/14 11:28:45;;;;;;;5.93;0.80;;;11.20;99.90;;;;;;5021314;28;20083;-77
2023/10/14 11:31:14;;;;;;;3.95;1.35;;;11.30;99.90;;;;;;5023133;28;20068;-75
2023/10/14 11:33:45;;;;;;;5.50;1.77;;;11.30;99.90;;;;;;5005615;28;20030;-75
2023/10/14 11:36:17;;;;;;;6.72;1.00;;;11.40;99.90;;;;;;5010454;28;20244;-73
2023/10/14 11:38:46;;;;;;;2.78;0.80;;;11.50;99.90;;;;;;5008697;28;20076;-74
2023/10/14 11:41:13;;;;;;;8.45;1.95;;;11.50;99.90;;;;;;5006065;28;20125;-74
2023/10/14 11:43:44;;;;;;;4.05;1.20;;;11.60;99.90;;;;;;5005612;28;20045;-76
2023/10/14 11:46:10;;;;;;;3.97;0.80;;;11.50;99.90;;;;;;5004629;28;20392;-74
2023/10/14 11:48:38;;;;;;;5.78;1.17;;;11.60;99.90;;;;;;5014843;28;20124;-74
2023/10/14 11:51:11;;;;;;;4.72;0.90;;;11.60;99.90;;;;;;5007986;28;20056;-74
2023/10/14 11:53:43;;;;;;;9.77;1.27;;;11.60;99.90;;;;;;5020920;28;20492;-74
2023/10/14 11:56:13;;;;;;;4.40;0.80;;;11.70;99.90;;;;;;5013763;28;20057;-77
2023/10/14 11:58:40;;;;;;;7.65;1.70;;;11.70;99.90;;;;;;5021345;28;20153;-78
2023/10/14 12:01:07;;;;;;;4.95;1.10;;;11.70;99.90;;;;;;5014424;28;20045;-76
2023/10/14 12:03:32;;;;;;;4.68;0.98;;;11.70;99.90;;;;;;5025189;28;20092;-76
2023/10/14 12:05:59;;;;;;;5.00;0.90;;;11.70;99.90;;;;;;5024653;28;20077;-76
2023/10/14 12:08:25;;;;;;;2.38;1.10;;;11.70;99.90;;;;;;5019310;28;20033;-78
2023/10/14 12:10:52;;;;;;;3.53;1.85;;;11.70;99.90;;;;;;5023363;28;20050;-80
2023/10/14 12:13:18;;;;;;;4.30;1.20;;;11.80;99.90;;;;;;5020773;28;20030;-78
2023/10/14 12:15:44;;;;;;;4.75;1.27;;;11.80;99.90;;;;;;5009218;28;20072;-76
2023/10/14 12:18:13;;;;;;;10.63;2.20;;;11.80;99.90;;;;;;5015027;28;20096;-78
2023/10/14 12:20:46;;;;;;;4.75;1.23;;;11.80;99.90;;;;;;5014674;28;20064;-78
2023/10/14 12:23:13;;;;;;;7.03;1.77;;;11.80;99.90;;;;;;5021897;28;20057;-78
2023/10/14 12:25:39;;;;;;;1.65;1.08;;;11.80;99.90;;;;;;5025516;28;20045;-80
2023/10/14 12:28:05;;;;;;;5.95;1.02;;;11.80;99.90;;;;;;5015734;28;20052;-76
2023/10/14 12:30:43;;;;;;;2.75;0.93;;;11.90;99.90;;;;;;5020180;28;20045;-76
2023/10/14 12:33:18;;;;;;;1.70;0.73;;;11.90;99.90;;;;;;5012324;28;20038;-77
2023/10/14 12:35:53;;;;;;;5.15;1.40;;;11.90;99.90;;;;;;5020625;28;20065;-78
2023/10/14 12:38:20;;;;;;;4.30;0.90;;;12.00;99.90;;;;;;5003241;28;20876;-78
2023/10/14 12:40:49;;;;;;;2.78;1.23;;;12.00;99.90;;;;;;5007092;28;20507;-78
2023/10/14 12:43:28;;;;;;;2.97;0.80;;;12.00;99.90;;;;;;5023827;28;20117;-76
2023/10/14 12:46:03;;;;;;;0.70;0.52;;;12.10;99.90;;;;;;5008353;28;20087;-77
2023/10/14 12:48:29;;;;;;;1.95;1.33;;;12.10;99.90;;;;;;5008972;28;20352;-78
2023/10/14 12:50:54;;;;;;;4.95;0.70;;;12.10;99.90;;;;;;5024742;28;20053;-76
2023/10/14 12:53:20;;;;;;;0.90;0.55;;;12.10;99.90;;;;;;5022101;28;20038;-77
2023/10/14 12:55:45;;;;;;;7.07;0.93;;;12.00;99.90;;;;;;5007690;28;20045;-77
2023/10/14 12:58:18;;;;;;;5.90;1.13;;;12.00;99.90;;;;;;5004629;28;20038;-77
2023/10/14 13:00:43;;;;;;;;;;;11.90;99.90;;;;;;5005010;28;20042;-77
2023/10/14 13:03:09;;;;;;;1.83;0.90;;;11.80;99.90;;;;;;5012737;28;19944;-79
2023/10/14 13:05:35;;;;;;;4.30;0.68;;;11.80;99.90;;;;;;5016129;28;20041;-77
2023/10/14 13:08:02;;;;;;;3.40;1.45;;;11.80;99.90;;;;;;5013310;28;20038;-77
2023/10/14 13:10:28;;;;;;;3.28;1.20;;;11.70;99.90;;;;;;5014223;28;20575;-77
2023/10/14 13:12:56;;;;;;;2.47;1.33;;;11.80;99.90;;;;;;5004889;28;20484;-75
2023/10/14 13:15:34;;;;;;;5.05;1.02;;;11.80;99.90;;;;;;5010059;28;20782;-77
2023/10/14 13:18:05;;;;;;;12.73;1.90;;;11.90;99.90;;;;;;5012213;28;20057;-76
2023/10/14 13:20:32;;;;;;;5.43;1.20;;;12.00;99.90;;;;;;5011503;28;20053;-77
2023/10/14 13:23:09;;;;;;;3.15;1.55;;;12.10;99.90;;;;;;5022236;28;20534;-76
2023/10/14 13:25:36;;;;;;;5.18;1.10;;;12.10;99.90;;;;;;5007922;28;20072;-76
2023/10/14 13:28:09;;;;;;;3.22;0.43;;;12.10;99.90;;;;;;5009884;28;20038;-76